createdAt,value
2022-09-28T00:00:09.671Z,5.60
2022-09-28T00:01:14.038Z,5.47
2022-09-28T00:02:15.857Z,5.57
2022-09-28T00:03:17.461Z,5.47
2022-09-28T00:04:20.452Z,5.50
2022-09-28T00:05:22.403Z,5.83
2022-09-28T00:06:26.775Z,5.50
2022-09-28T00:07:28.937Z,5.60
2022-09-28T00:08:30.544Z,5.40
2022-09-28T00:09:32.141Z,5.53
2022-09-28T00:10:33.681Z,5.30
2022-09-28T00:11:36.052Z,5.60
2022-09-28T00:12:37.639Z,6.60
2022-09-28T00:13:40.343Z,6.30
2022-09-28T00:14:44.129Z,5.97
2022-09-28T00:15:45.670Z,6.00
2022-09-28T00:16:48.603Z,5.77
2022-09-28T00:17:50.384Z,6.27
2022-09-28T00:18:52.338Z,6.37
2022-09-28T00:19:54.125Z,5.90
2022-09-28T00:21:11.295Z,5.37
2022-09-28T00:22:12.852Z,5.50
2022-09-28T00:23:14.363Z,5.50
2022-09-28T00:24:16.053Z,5.00
2022-09-28T00:25:17.769Z,5.60
2022-09-28T00:26:19.284Z,5.07
2022-09-28T00:27:20.849Z,5.30
2022-09-28T00:28:22.427Z,5.40
2022-09-28T00:29:27.007Z,5.50
2022-09-28T00:30:28.532Z,5.90
2022-09-28T00:31:32.784Z,6.73
2022-09-28T00:32:34.688Z,8.00
2022-09-28T00:33:36.229Z,10.20
2022-09-28T00:34:42.466Z,9.70
2022-09-28T00:35:44.107Z,9.33
2022-09-28T00:36:48.151Z,9.70
2022-09-28T00:37:50.334Z,9.70
2022-09-28T00:38:52.315Z,9.90
2022-09-28T00:39:53.824Z,8.60
2022-09-28T00:40:56.136Z,8.13
2022-09-28T00:41:58.817Z,9.70
2022-09-28T00:43:20.333Z,8.53
2022-09-28T00:44:52.928Z,7.03
2022-09-28T00:46:03.696Z,5.53
2022-09-28T00:47:38.675Z,6.20
2022-09-28T00:48:51.949Z,6.33
2022-09-28T00:50:02.312Z,5.50
2022-09-28T00:51:09.236Z,6.30
2022-09-28T00:52:15.753Z,6.83
2022-09-28T00:53:26.773Z,6.63
2022-09-28T00:54:31.095Z,5.83
2022-09-28T00:55:40.170Z,5.87
2022-09-28T00:56:44.683Z,6.10
2022-09-28T00:57:51.877Z,5.87
2022-09-28T00:58:54.740Z,5.60
2022-09-28T00:59:56.851Z,6.20
2022-09-28T01:00:59.716Z,5.20
2022-09-28T01:02:02.346Z,5.87
2022-09-28T01:03:04.147Z,5.70
2022-09-28T01:04:06.492Z,6.10
2022-09-28T01:05:10.410Z,5.90
2022-09-28T01:06:18.036Z,5.37
2022-09-28T01:07:20.220Z,5.50
2022-09-28T01:08:24.633Z,5.83
2022-09-28T01:09:27.708Z,6.40
2022-09-28T01:10:31.146Z,5.90
2022-09-28T01:11:33.728Z,5.83
2022-09-28T01:12:35.267Z,5.47
2022-09-28T01:13:37.859Z,7.23
2022-09-28T01:14:41.230Z,6.30
2022-09-28T01:15:59.370Z,6.33
2022-09-28T01:17:37.841Z,7.53
2022-09-28T01:19:07.947Z,6.70
2022-09-28T01:20:21.539Z,6.67
2022-09-28T01:21:24.512Z,5.67
2022-09-28T01:22:34.437Z,5.70
2022-09-28T01:24:20.718Z,6.30
2022-09-28T01:25:25.933Z,5.63
2022-09-28T01:27:11.877Z,6.03
2022-09-28T01:28:16.324Z,7.87
2022-09-28T01:29:40.428Z,8.20
2022-09-28T01:31:12.851Z,8.73
2022-09-28T01:32:29.633Z,7.97
2022-09-28T01:33:46.024Z,7.97
2022-09-28T01:34:57.751Z,7.63
2022-09-28T01:36:33.305Z,8.10
2022-09-28T01:37:48.214Z,7.80
2022-09-28T01:38:55.299Z,8.10
2022-09-28T01:39:58.590Z,7.97
2022-09-28T01:41:00.673Z,7.87
2022-09-28T01:42:12.038Z,9.30
2022-09-28T01:43:26.709Z,9.43
2022-09-28T01:44:32.865Z,9.13
2022-09-28T01:45:42.813Z,8.60
2022-09-28T01:46:48.427Z,9.20
2022-09-28T01:47:51.280Z,8.33
2022-09-28T01:49:05.129Z,8.40
2022-09-28T01:50:14.725Z,8.70
2022-09-28T01:51:29.341Z,9.33
2022-09-28T01:52:40.989Z,8.30
2022-09-28T01:53:49.272Z,7.87
2022-09-28T01:55:34.712Z,7.80
2022-09-28T01:56:42.002Z,8.40
2022-09-28T01:57:48.393Z,8.70
2022-09-28T01:58:57.671Z,7.90
2022-09-28T02:00:14.620Z,7.43
2022-09-28T02:01:24.611Z,7.20
2022-09-28T02:02:32.833Z,7.47
2022-09-28T02:03:46.048Z,6.37
2022-09-28T02:05:04.904Z,6.83
2022-09-28T02:06:16.350Z,6.83
2022-09-28T02:07:24.401Z,7.33
2022-09-28T02:08:45.911Z,7.03
2022-09-28T02:09:56.031Z,8.23
2022-09-28T02:11:04.902Z,6.90
2022-09-28T02:12:15.075Z,8.23
2022-09-28T02:13:25.333Z,7.20
2022-09-28T02:14:29.819Z,9.50
2022-09-28T02:15:41.664Z,8.07
2022-09-28T02:16:46.758Z,7.93
2022-09-28T02:17:49.404Z,7.27
2022-09-28T02:18:51.580Z,7.20
2022-09-28T02:19:53.211Z,7.20
2022-09-28T02:21:11.034Z,7.50
2022-09-28T02:22:28.614Z,7.33
2022-09-28T02:23:35.167Z,7.20
2022-09-28T02:24:41.996Z,7.33
2022-09-28T02:25:50.121Z,7.40
2022-09-28T02:26:55.354Z,6.80
2022-09-28T02:27:56.868Z,6.57
2022-09-28T02:28:59.316Z,5.97
2022-09-28T02:30:01.670Z,6.13
2022-09-28T02:31:03.492Z,6.60
2022-09-28T02:32:05.256Z,5.87
2022-09-28T02:33:15.686Z,6.20
2022-09-28T02:34:17.390Z,5.73
2022-09-28T02:35:19.857Z,5.00
2022-09-28T02:36:22.232Z,5.37
2022-09-28T02:37:23.915Z,5.53
2022-09-28T02:38:25.511Z,6.10
2022-09-28T02:39:27.148Z,6.17
2022-09-28T02:40:33.568Z,6.67
2022-09-28T02:41:41.151Z,7.10
2022-09-28T02:43:10.654Z,6.60
2022-09-28T02:44:41.091Z,6.93
2022-09-28T02:46:03.604Z,6.53
2022-09-28T02:47:27.158Z,6.60
2022-09-28T02:49:04.963Z,6.33
2022-09-28T02:50:20.764Z,5.90
2022-09-28T02:51:35.983Z,5.70
2022-09-28T02:53:06.772Z,5.60
2022-09-28T02:54:39.262Z,5.53
2022-09-28T02:56:18.217Z,6.00
2022-09-28T02:57:19.733Z,5.67
2022-09-28T02:58:33.256Z,5.37
2022-09-28T02:59:58.492Z,4.80
2022-09-28T03:01:18.560Z,4.47
2022-09-28T03:02:32.203Z,4.70
2022-09-28T03:03:48.621Z,5.80
2022-09-28T03:05:16.057Z,5.13
2022-09-28T03:06:27.022Z,4.33
2022-09-28T03:07:37.807Z,5.07
2022-09-28T03:08:52.952Z,4.37
2022-09-28T03:10:27.790Z,4.87
2022-09-28T03:11:37.082Z,4.30
2022-09-28T03:12:39.589Z,4.27
2022-09-28T03:13:42.416Z,4.17
2022-09-28T03:14:45.179Z,4.10
2022-09-28T03:15:48.980Z,4.40
2022-09-28T03:16:50.904Z,4.73
2022-09-28T03:17:52.681Z,4.97
2022-09-28T03:18:54.463Z,4.67
2022-09-28T03:19:55.994Z,4.93
2022-09-28T03:20:57.855Z,4.80
2022-09-28T03:21:59.816Z,4.90
2022-09-28T03:23:23.384Z,4.87
2022-09-28T03:24:23.190Z,5.13
2022-09-28T03:25:24.806Z,4.90
2022-09-28T03:26:26.381Z,4.97
2022-09-28T03:27:29.038Z,4.70
2022-09-28T03:28:31.103Z,6.37
2022-09-28T03:29:33.534Z,6.00
2022-09-28T03:30:35.724Z,6.40
2022-09-28T03:31:38.507Z,7.63
2022-09-28T03:32:40.644Z,7.37
2022-09-28T03:33:42.426Z,8.20
2022-09-28T03:34:45.638Z,8.90
2022-09-28T03:35:48.551Z,9.80
2022-09-28T03:36:50.073Z,11.83
2022-09-28T03:37:55.974Z,10.80
2022-09-28T03:38:57.820Z,10.23
2022-09-28T03:39:59.383Z,9.93
2022-09-28T03:41:01.286Z,9.53
2022-09-28T03:42:02.945Z,8.87
2022-09-28T03:43:04.535Z,9.33
2022-09-28T03:44:06.123Z,7.87
2022-09-28T03:45:07.910Z,8.57
2022-09-28T03:46:09.641Z,8.43
2022-09-28T03:47:11.333Z,9.97
2022-09-28T03:48:12.889Z,9.77
2022-09-28T03:49:14.545Z,10.30
2022-09-28T03:50:16.433Z,12.27
2022-09-28T03:51:17.965Z,12.53
2022-09-28T03:52:19.561Z,14.17
2022-09-28T03:53:21.343Z,15.43
2022-09-28T03:54:23.047Z,11.53
2022-09-28T03:55:24.645Z,10.83
2022-09-28T03:56:26.566Z,11.60
2022-09-28T03:57:28.118Z,14.60
2022-09-28T03:58:29.801Z,12.93
2022-09-28T03:59:31.364Z,12.50
2022-09-28T04:00:33.079Z,11.67
2022-09-28T04:01:34.832Z,11.27
2022-09-28T04:02:36.609Z,10.17
2022-09-28T04:03:38.768Z,10.33
2022-09-28T04:04:40.324Z,9.73
2022-09-28T04:05:52.805Z,9.80
2022-09-28T04:06:54.414Z,9.17
2022-09-28T04:07:58.818Z,9.27
2022-09-28T04:09:00.426Z,9.07
2022-09-28T04:10:01.958Z,9.30
2022-09-28T04:11:03.692Z,9.50
2022-09-28T04:12:06.103Z,9.27
2022-09-28T04:13:07.645Z,8.67
2022-09-28T04:14:10.765Z,8.60
2022-09-28T04:15:12.515Z,9.27
2022-09-28T04:16:14.144Z,9.03
2022-09-28T04:17:15.696Z,9.00
2022-09-28T04:18:17.244Z,10.00
2022-09-28T04:19:20.004Z,9.53
2022-09-28T04:20:22.105Z,9.73
2022-09-28T04:21:23.688Z,9.73
2022-09-28T04:22:25.245Z,9.37
2022-09-28T04:23:27.879Z,11.60
2022-09-28T04:24:29.429Z,9.30
2022-09-28T04:25:30.985Z,9.50
2022-09-28T04:26:32.522Z,10.50
2022-09-28T04:27:52.255Z,8.67
2022-09-28T04:29:12.630Z,8.80
2022-09-28T04:30:14.518Z,10.43
2022-09-28T04:31:22.329Z,10.27
2022-09-28T04:32:24.405Z,9.77
2022-09-28T04:33:25.961Z,9.90
2022-09-28T04:34:31.916Z,11.30
2022-09-28T04:35:37.076Z,8.57
2022-09-28T04:36:38.587Z,10.83
2022-09-28T04:37:40.307Z,14.77
2022-09-28T04:38:52.851Z,9.60
2022-09-28T04:39:54.909Z,10.00
2022-09-28T04:40:56.522Z,10.23
2022-09-28T04:41:58.062Z,12.30
2022-09-28T04:42:59.626Z,12.37
2022-09-28T04:44:01.448Z,12.10
2022-09-28T04:45:04.787Z,12.73
2022-09-28T04:46:06.484Z,9.93
2022-09-28T04:47:08.111Z,12.70
2022-09-28T04:48:09.650Z,10.70
2022-09-28T04:49:11.571Z,10.83
2022-09-28T04:50:13.162Z,10.50
2022-09-28T04:51:14.951Z,10.20
2022-09-28T04:52:18.539Z,10.17
2022-09-28T04:53:20.485Z,15.23
2022-09-28T04:54:22.007Z,13.10
2022-09-28T04:55:23.691Z,12.50
2022-09-28T04:56:25.369Z,9.73
2022-09-28T04:57:26.890Z,10.67
2022-09-28T04:58:29.765Z,10.37
2022-09-28T04:59:31.511Z,10.33
2022-09-28T05:00:35.955Z,10.60
2022-09-28T05:01:37.775Z,9.80
2022-09-28T05:02:39.433Z,11.97
2022-09-28T05:03:41.555Z,10.67
2022-09-28T05:04:43.120Z,10.77
2022-09-28T05:05:45.773Z,10.20
2022-09-28T05:06:47.363Z,10.17
2022-09-28T05:07:48.928Z,10.20
2022-09-28T05:08:50.451Z,9.17
2022-09-28T05:09:51.989Z,8.43
2022-09-28T05:11:04.926Z,8.33
2022-09-28T05:12:06.563Z,8.47
2022-09-28T11:45:34.230Z,1.10
2022-09-28T11:46:52.253Z,1.00
2022-09-28T11:48:01.976Z,1.05
2022-09-28T11:49:41.770Z,1.05
2022-09-28T11:50:50.428Z,1.10
2022-09-28T11:51:56.757Z,1.10
2022-09-28T11:53:16.336Z,1.08
2022-09-28T11:54:34.109Z,1.13
2022-09-28T11:55:45.284Z,0.70
2022-09-28T11:56:50.487Z,0.90
2022-09-28T11:58:24.136Z,1.02
2022-09-28T11:59:31.944Z,1.35
2022-09-28T12:00:41.344Z,1.02
2022-09-28T12:01:53.344Z,1.10
2022-09-28T12:02:54.931Z,1.13
2022-09-28T12:04:03.865Z,1.45
2022-09-28T12:05:20.529Z,1.33
2022-09-28T12:06:30.112Z,0.95
2022-09-28T12:07:40.454Z,1.10
2022-09-28T12:09:06.531Z,1.20
2022-09-28T12:10:11.665Z,0.90
2022-09-28T12:11:32.929Z,0.85
2022-09-28T12:12:37.209Z,1.02
2022-09-28T12:13:44.620Z,0.95
2022-09-28T12:14:48.248Z,1.00
2022-09-28T12:16:38.418Z,1.05
2022-09-28T12:17:43.642Z,1.10
2022-09-28T12:20:27.224Z,1.08
2022-09-28T12:21:44.898Z,1.02
2022-09-28T12:23:11.760Z,1.00
2022-09-28T12:24:30.975Z,1.20
2022-09-28T12:25:42.973Z,0.82
2022-09-28T12:27:05.260Z,1.38
2022-09-28T12:28:15.428Z,1.38
2022-09-28T12:29:43.452Z,1.08
2022-09-28T12:30:47.609Z,1.02
2022-09-28T12:32:13.972Z,1.00
2022-09-28T12:33:15.649Z,0.85
2022-09-28T12:34:17.205Z,0.90
2022-09-28T12:35:54.944Z,1.17
2022-09-28T12:37:05.483Z,1.10
2022-09-28T12:38:38.063Z,1.00
2022-09-28T12:39:59.618Z,1.00
2022-09-28T12:41:07.826Z,1.00
2022-09-28T12:42:27.653Z,1.00
2022-09-28T12:43:55.151Z,1.20
2022-09-28T12:45:18.843Z,0.88
2022-09-28T12:46:33.152Z,1.33
2022-09-28T12:47:55.629Z,1.30
2022-09-28T12:51:39.311Z,1.13
2022-09-28T12:52:43.791Z,1.05
2022-09-28T12:54:06.838Z,1.02
2022-09-28T12:55:25.136Z,1.20
2022-09-28T12:56:36.134Z,1.05
2022-09-28T12:57:45.846Z,1.20
2022-09-28T12:59:06.029Z,0.90
2022-09-28T13:00:10.941Z,1.15
2022-09-28T13:01:31.254Z,0.90
2022-09-28T13:02:53.037Z,0.93
2022-09-28T13:04:00.310Z,1.38
2022-09-28T13:05:42.922Z,0.95
2022-09-28T13:06:54.585Z,0.85
2022-09-28T13:08:13.975Z,1.10
2022-09-28T13:09:20.299Z,1.00
2022-09-28T13:10:41.122Z,1.20
2022-09-28T13:11:54.798Z,1.23
2022-09-28T13:13:22.958Z,1.08
2022-09-28T13:14:33.731Z,1.33
2022-09-28T13:15:43.967Z,1.40
2022-09-28T13:17:14.914Z,1.73
2022-09-28T13:18:20.031Z,1.25
2022-09-28T13:19:28.580Z,0.90
2022-09-28T13:20:59.265Z,1.20
2022-09-28T13:22:22.846Z,1.30
2022-09-28T13:23:31.132Z,1.17
2022-09-28T13:24:37.534Z,1.30
2022-09-28T13:25:44.719Z,1.10
2022-09-28T13:26:47.436Z,1.10
2022-09-28T13:27:58.761Z,1.17
2022-09-28T13:29:04.369Z,1.25
2022-09-28T13:30:07.890Z,1.13
2022-09-28T13:31:11.250Z,1.35
2022-09-28T13:32:13.875Z,1.13
2022-09-28T13:33:39.521Z,1.60
2022-09-28T13:34:41.163Z,1.20
2022-09-28T13:35:44.091Z,1.20
2022-09-28T13:36:48.140Z,0.90
2022-09-28T13:38:16.317Z,0.90
2022-09-28T13:39:45.042Z,1.20
2022-09-28T13:41:04.910Z,1.20
2022-09-28T13:42:09.606Z,1.40
2022-09-28T13:43:26.994Z,1.40
2022-09-28T13:45:09.811Z,1.30
2022-09-28T13:46:25.080Z,1.10
2022-09-28T13:47:42.171Z,1.38
2022-09-28T13:49:03.551Z,0.98
2022-09-28T13:50:23.274Z,0.90
2022-09-28T13:51:55.492Z,1.10
2022-09-28T13:53:24.886Z,1.20
2022-09-28T13:54:42.978Z,1.17
2022-09-28T13:56:03.038Z,1.17
2022-09-28T13:57:19.633Z,1.20
2022-09-28T13:58:25.700Z,0.90
2022-09-28T13:59:32.365Z,1.10
2022-09-28T14:00:46.138Z,1.10
2022-09-28T14:01:55.704Z,1.30
2022-09-28T14:03:13.234Z,1.27
2022-09-28T14:04:21.896Z,1.10
2022-09-28T14:05:23.377Z,1.10
2022-09-28T14:06:28.280Z,1.30
2022-09-28T14:07:35.817Z,1.08
2022-09-28T14:09:04.909Z,0.90
2022-09-28T14:10:21.679Z,1.13
2022-09-28T14:11:34.210Z,1.00
2022-09-28T14:12:35.686Z,1.10
2022-09-28T14:13:43.001Z,1.30
2022-09-28T14:14:50.148Z,1.05
2022-09-28T14:15:52.409Z,1.17
2022-09-28T14:17:23.484Z,1.10
2022-09-28T14:18:27.916Z,1.00
2022-09-28T14:19:33.431Z,1.40
2022-09-28T14:20:36.406Z,1.20
2022-09-28T14:21:46.836Z,1.17
2022-09-28T14:23:15.586Z,1.10
2022-09-28T14:24:30.207Z,0.98
2022-09-28T14:25:36.003Z,1.40
2022-09-28T14:26:56.254Z,1.25
2022-09-28T14:28:23.299Z,1.63
2022-09-28T14:29:28.815Z,1.23
2022-09-28T14:30:44.971Z,1.58
2022-09-28T14:31:46.676Z,1.25
2022-09-28T14:33:22.868Z,1.08
2022-09-28T14:34:36.743Z,1.17
2022-09-28T14:35:43.669Z,1.38
2022-09-28T14:37:07.627Z,1.25
2022-09-28T14:38:38.185Z,1.30
2022-09-28T14:40:03.495Z,1.45
2022-09-28T14:41:27.115Z,1.20
2022-09-28T14:42:28.969Z,1.20
2022-09-28T14:43:45.576Z,1.45
2022-09-28T14:45:06.096Z,0.93
2022-09-28T14:46:11.613Z,1.00
2022-09-28T14:47:35.304Z,1.42
2022-09-28T14:48:53.515Z,1.95
2022-09-28T14:50:03.154Z,1.73
2022-09-28T14:51:26.735Z,1.33
2022-09-28T14:52:40.742Z,1.20
2022-09-28T14:53:42.402Z,1.05
2022-09-28T14:54:54.333Z,1.65
2022-09-28T14:56:00.651Z,0.85
2022-09-28T14:57:17.194Z,1.27
2022-09-28T14:58:22.814Z,1.40
2022-09-28T14:59:26.936Z,1.20
2022-09-28T15:00:31.866Z,1.40
2022-09-28T15:01:36.080Z,1.27
2022-09-28T15:02:38.819Z,1.27
2022-09-28T15:03:42.734Z,1.08
2022-09-28T15:04:50.343Z,1.60
2022-09-28T15:05:52.798Z,1.48
2022-09-28T15:06:54.539Z,1.08
2022-09-28T15:07:56.275Z,1.55
2022-09-28T15:08:57.852Z,1.27
2022-09-28T15:10:02.073Z,1.30
2022-09-28T15:11:03.747Z,1.45
2022-09-28T15:12:15.069Z,1.20
2022-09-28T15:13:20.791Z,1.58
2022-09-28T15:14:23.167Z,1.25
2022-09-28T15:15:30.617Z,1.20
2022-09-28T15:16:32.718Z,1.33
2022-09-28T15:17:39.974Z,1.10
2022-09-28T15:18:47.809Z,1.02
2022-09-28T15:20:08.828Z,1.30
2022-09-28T15:21:12.226Z,1.17
2022-09-28T15:22:17.748Z,1.20
2022-09-28T15:23:37.174Z,1.10
2022-09-28T15:24:40.228Z,1.10
2022-09-28T15:25:41.732Z,0.95
2022-09-28T15:26:48.106Z,1.27
2022-09-28T15:27:55.429Z,1.58
2022-09-28T15:28:57.285Z,1.15
2022-09-28T15:30:00.951Z,1.35
2022-09-28T15:31:04.985Z,1.30
2022-09-28T15:32:06.870Z,1.50
2022-09-28T15:33:44.811Z,1.40
2022-09-28T15:34:52.717Z,1.40
2022-09-28T15:36:06.833Z,1.10
2022-09-28T15:37:11.553Z,1.33
2022-09-28T15:38:19.002Z,1.20
2022-09-28T15:39:27.763Z,1.42
2022-09-28T15:40:37.742Z,1.25
2022-09-28T15:41:41.531Z,1.23
2022-09-28T15:42:45.281Z,1.55
2022-09-28T15:44:06.963Z,1.50
2022-09-28T15:45:14.313Z,1.10
2022-09-28T15:46:21.135Z,1.13
2022-09-28T15:47:28.374Z,1.20
2022-09-28T15:48:51.678Z,1.60
2022-09-28T15:50:04.507Z,1.30
2022-09-28T15:51:10.747Z,1.48
2022-09-28T15:52:36.781Z,1.20
2022-09-28T15:53:44.039Z,0.98
2022-09-28T15:54:45.688Z,1.30
2022-09-28T15:55:50.271Z,1.10
2022-09-28T15:56:58.923Z,1.80
2022-09-28T15:58:12.610Z,1.38
2022-09-28T15:59:14.061Z,1.20
2022-09-28T16:00:21.450Z,1.20
2022-09-28T16:01:36.412Z,1.17
2022-09-28T16:02:38.466Z,1.00
2022-09-28T16:03:40.063Z,1.20
2022-09-28T16:04:55.289Z,1.25
2022-09-28T16:06:09.925Z,1.20
2022-09-28T16:07:41.649Z,1.60
2022-09-28T16:08:48.855Z,1.35
2022-09-28T16:10:12.113Z,1.30
2022-09-28T16:11:16.709Z,1.50
2022-09-28T16:12:20.011Z,1.50
2022-09-28T16:13:23.142Z,1.27
2022-09-28T16:14:27.231Z,1.50
2022-09-28T16:15:37.912Z,1.38
2022-09-28T16:16:47.325Z,1.20
2022-09-28T16:18:10.422Z,1.70
2022-09-28T16:19:23.594Z,1.48
2022-09-28T16:20:29.906Z,1.38
2022-09-28T16:21:51.194Z,1.52
2022-09-28T16:22:53.630Z,1.25
2022-09-28T16:23:56.070Z,1.52
2022-09-28T16:25:00.101Z,1.38
2022-09-28T16:26:05.172Z,1.60
2022-09-28T16:27:06.618Z,1.30
2022-09-28T16:28:25.442Z,1.58
2022-09-28T16:29:39.014Z,1.48
2022-09-28T16:31:14.068Z,1.20
2022-09-28T16:32:47.906Z,1.85
2022-09-28T16:33:55.145Z,1.40
2022-09-28T16:35:21.692Z,1.55
2022-09-28T16:36:26.939Z,1.70
2022-09-28T16:37:32.458Z,1.85
2022-09-28T16:38:34.101Z,2.13
2022-09-28T16:39:35.854Z,2.20
2022-09-28T16:40:42.686Z,2.35
2022-09-28T16:41:53.947Z,1.92
2022-09-28T16:43:00.318Z,2.10
2022-09-28T16:44:02.388Z,2.22
2022-09-28T16:45:05.387Z,1.80
2022-09-28T16:46:17.535Z,1.90
2022-09-28T16:47:19.210Z,2.13
2022-09-28T16:48:21.889Z,1.70
2022-09-28T16:49:25.509Z,1.98
2022-09-28T16:50:27.772Z,1.80
2022-09-28T16:51:29.812Z,1.80
2022-09-28T16:52:51.713Z,1.60
2022-09-28T16:54:12.126Z,2.15
2022-09-28T16:55:40.379Z,2.20
2022-09-28T16:56:38.609Z,2.00
2022-09-28T16:57:40.162Z,2.95
2022-09-28T16:58:42.508Z,3.10
2022-09-28T16:59:44.139Z,2.63
2022-09-28T17:00:45.794Z,3.28
2022-09-28T17:01:49.456Z,2.50
2022-09-28T17:02:51.343Z,2.20
2022-09-28T17:03:52.892Z,2.00
2022-09-28T17:04:57.399Z,2.35
2022-09-28T17:05:58.960Z,1.92
2022-09-28T17:07:00.528Z,2.28
2022-09-28T17:08:04.014Z,2.17
2022-09-28T17:09:07.062Z,2.28
2022-09-28T17:10:29.295Z,2.50
2022-09-28T17:11:30.819Z,2.40
2022-09-28T17:12:32.366Z,2.42
2022-09-28T17:13:34.711Z,2.28
2022-09-28T17:14:36.967Z,1.92
2022-09-28T17:15:40.048Z,2.25
2022-09-28T17:17:06.691Z,3.00
2022-09-28T17:18:04.129Z,3.17
2022-09-28T17:19:21.439Z,2.72
2022-09-28T17:20:27.605Z,2.95
2022-09-28T17:21:29.152Z,2.80
2022-09-28T17:22:30.938Z,2.40
2022-09-28T17:23:33.302Z,2.90
2022-09-28T17:24:35.158Z,2.17
2022-09-28T17:25:36.821Z,3.05
2022-09-28T17:26:38.612Z,2.72
2022-09-28T17:27:45.431Z,3.05
2022-09-28T17:28:47.214Z,3.03
2022-09-28T17:29:48.799Z,3.28
2022-09-28T17:30:50.515Z,2.53
2022-09-28T17:31:54.771Z,3.00
2022-09-28T17:32:57.234Z,2.70
2022-09-28T17:33:58.900Z,3.15
2022-09-28T17:35:23.031Z,3.63
2022-09-28T17:36:22.788Z,4.18
2022-09-28T17:37:24.306Z,3.70
2022-09-28T17:38:25.937Z,3.13
2022-09-28T17:39:27.842Z,3.35
2022-09-28T17:40:30.423Z,3.38
2022-09-28T17:41:32.381Z,3.30
2022-09-28T17:42:34.163Z,3.03
2022-09-28T17:43:35.811Z,3.50
2022-09-28T17:44:37.345Z,3.33
2022-09-28T17:45:40.964Z,2.40
2022-09-28T17:46:49.677Z,2.30
2022-09-28T17:47:51.472Z,2.40
2022-09-28T17:48:56.563Z,2.10
2022-09-28T17:49:58.596Z,2.20
2022-09-28T17:51:02.004Z,2.20
2022-09-28T17:52:05.472Z,2.20
2022-09-28T17:53:07.276Z,2.60
2022-09-28T17:54:08.917Z,2.50
2022-09-28T17:55:10.537Z,2.67
2022-09-28T17:56:12.284Z,2.20
2022-09-28T17:57:13.797Z,1.80
2022-09-28T17:58:18.441Z,2.00
2022-09-28T17:59:20.041Z,2.08
2022-09-28T18:00:22.793Z,1.75
2022-09-28T18:01:24.429Z,1.70
2022-09-28T18:02:26.090Z,1.40
2022-09-28T18:03:27.724Z,1.95
2022-09-28T18:04:50.873Z,1.70
2022-09-28T18:06:00.592Z,1.90
2022-09-28T18:07:02.115Z,1.80
2022-09-28T18:08:04.534Z,1.80
2022-09-28T18:09:06.204Z,2.13
2022-09-28T18:10:13.682Z,1.65
2022-09-28T18:11:17.368Z,1.73
2022-09-28T18:12:19.280Z,1.60
2022-09-28T18:13:20.817Z,1.73
2022-09-28T18:14:22.538Z,2.30
2022-09-28T18:15:24.257Z,2.00
2022-09-28T18:16:28.023Z,1.77
2022-09-28T18:17:29.674Z,1.80
2022-09-28T18:18:33.363Z,2.15
2022-09-28T18:19:34.888Z,1.85
2022-09-28T18:20:37.589Z,1.85
2022-09-28T18:21:39.155Z,2.63
2022-09-28T18:22:40.742Z,1.77
2022-09-28T18:23:42.372Z,1.70
2022-09-28T18:24:43.891Z,1.75
2022-09-28T18:25:46.379Z,1.60
2022-09-28T18:26:47.889Z,1.58
2022-09-28T18:27:49.435Z,1.80
2022-09-28T18:28:54.600Z,1.67
2022-09-28T18:29:56.935Z,2.05
2022-09-28T18:30:59.058Z,2.40
2022-09-28T18:32:01.540Z,1.88
2022-09-28T18:33:03.058Z,1.75
2022-09-28T18:34:04.621Z,1.95
2022-09-28T18:35:08.783Z,1.75
2022-09-28T18:36:10.413Z,1.70
2022-09-28T18:37:11.995Z,1.98
2022-09-28T18:38:13.557Z,2.08
2022-09-28T18:39:15.115Z,1.88
2022-09-28T18:40:16.684Z,2.45
2022-09-28T18:41:18.264Z,2.45
2022-09-28T18:42:20.642Z,2.10
2022-09-28T18:43:22.949Z,2.30
2022-09-28T18:44:24.913Z,2.00
2022-09-28T18:45:26.749Z,2.40
2022-09-28T18:46:29.481Z,1.95
2022-09-28T18:47:31.212Z,2.08
2022-09-28T18:48:32.810Z,1.88
2022-09-28T18:49:34.507Z,1.85
2022-09-28T18:50:36.167Z,2.08
2022-09-28T18:51:37.714Z,1.83
2022-09-28T18:52:40.066Z,1.90
2022-09-28T18:53:42.206Z,2.03
2022-09-28T18:54:44.153Z,1.67
2022-09-28T18:55:45.710Z,1.63
2022-09-28T18:56:47.442Z,1.83
2022-09-28T18:57:49.163Z,1.92
2022-09-28T18:58:53.771Z,2.00
2022-09-28T18:59:55.318Z,1.73
2022-09-28T19:01:13.576Z,1.83
2022-09-28T19:02:18.474Z,1.60
2022-09-28T19:03:20.275Z,1.60
2022-09-28T19:04:21.915Z,1.70
2022-09-28T19:05:23.518Z,1.70
2022-09-28T19:06:25.061Z,1.50
2022-09-28T19:07:26.912Z,1.60
2022-09-28T19:08:28.436Z,1.70
2022-09-28T19:09:30.159Z,1.65
2022-09-28T19:10:31.707Z,1.80
2022-09-28T19:11:33.546Z,1.45
2022-09-28T19:12:35.064Z,1.90
2022-09-28T19:13:37.364Z,1.80
2022-09-28T19:14:39.048Z,2.20
2022-09-28T19:15:40.626Z,2.15
2022-09-28T19:16:44.123Z,2.22
2022-09-28T19:17:46.806Z,1.70
2022-09-28T19:18:48.543Z,1.80
2022-09-28T19:19:51.210Z,1.83
2022-09-28T19:20:52.813Z,2.03
2022-09-28T19:21:54.414Z,2.08
2022-09-28T19:22:55.973Z,2.25
2022-09-28T19:24:00.944Z,2.25
2022-09-28T19:25:02.488Z,2.42
2022-09-28T19:26:14.349Z,2.05
2022-09-28T19:27:16.043Z,2.25
2022-09-28T19:28:17.569Z,1.80
2022-09-28T19:29:19.785Z,1.73
2022-09-28T19:30:21.414Z,1.70
2022-09-28T19:31:23.396Z,1.75
2022-09-28T19:32:24.905Z,1.60
2022-09-28T19:33:26.928Z,1.70
2022-09-28T19:34:30.125Z,1.77
2022-09-28T19:35:31.926Z,1.40
2022-09-28T19:36:33.466Z,1.40
2022-09-28T19:37:36.576Z,1.75
2022-09-28T19:38:39.401Z,1.58
2022-09-28T19:39:40.953Z,1.33
2022-09-28T19:40:42.553Z,1.80
2022-09-28T19:41:47.880Z,1.60
2022-09-28T19:42:49.386Z,1.10
2022-09-28T19:43:51.377Z,1.30
2022-09-28T19:44:52.891Z,1.25
2022-09-28T19:45:55.991Z,1.10
2022-09-28T19:47:07.385Z,1.83
2022-09-28T19:48:08.939Z,1.30
2022-09-28T19:49:25.255Z,1.60
2022-09-28T19:50:26.775Z,1.45
2022-09-28T19:51:28.892Z,2.05
2022-09-28T19:52:30.482Z,2.10
2022-09-28T19:53:37.894Z,2.20
2022-09-28T19:54:39.686Z,1.90
2022-09-28T19:55:41.414Z,1.70
2022-09-28T19:56:45.107Z,1.75
2022-09-28T19:57:47.991Z,2.00
2022-09-28T19:58:50.311Z,1.55
2022-09-28T19:59:53.808Z,2.00
2022-09-28T20:00:57.385Z,1.90
2022-09-28T20:02:01.359Z,1.48
2022-09-28T20:03:03.009Z,1.48
2022-09-28T20:04:04.541Z,1.60
2022-09-28T20:05:06.225Z,1.48
2022-09-28T20:06:08.197Z,1.33
2022-09-28T20:07:09.777Z,1.48
2022-09-28T20:08:12.625Z,1.35
2022-09-28T20:09:14.242Z,1.42
2022-09-28T20:10:16.199Z,1.73
2022-09-28T20:11:18.845Z,1.48
2022-09-28T20:12:20.457Z,1.63
2022-09-28T20:13:23.387Z,1.48
2022-09-28T20:14:25.986Z,1.67
2022-09-28T20:15:30.122Z,1.80
2022-09-28T20:16:32.092Z,2.35
2022-09-28T20:17:36.294Z,2.72
2022-09-28T20:18:40.319Z,3.47
2022-09-28T20:19:42.273Z,2.67
2022-09-28T20:20:43.808Z,2.05
2022-09-28T20:21:45.392Z,1.90
2022-09-28T20:22:47.393Z,1.70
2022-09-28T20:23:49.607Z,1.98
2022-09-28T20:24:51.124Z,2.00
2022-09-28T20:25:52.981Z,1.88
2022-09-28T20:26:54.596Z,1.67
2022-09-28T20:27:56.105Z,1.92
2022-09-28T20:28:58.318Z,1.70
2022-09-28T20:29:59.860Z,1.92
2022-09-28T20:31:14.099Z,1.70
2022-09-28T20:32:15.840Z,1.60
2022-09-28T20:33:27.472Z,1.60
2022-09-28T20:34:30.040Z,1.83
2022-09-28T20:35:33.356Z,1.75
2022-09-28T20:36:35.923Z,1.63
2022-09-28T20:37:37.459Z,1.73
2022-09-28T20:38:40.591Z,1.77
2022-09-28T20:39:44.989Z,1.60
2022-09-28T20:40:48.132Z,2.00
2022-09-28T20:41:49.735Z,2.13
2022-09-28T20:42:51.464Z,1.67
2022-09-28T20:43:55.888Z,1.63
2022-09-28T20:44:58.036Z,1.70
2022-09-28T20:45:59.648Z,1.70
2022-09-28T20:47:01.226Z,2.08
2022-09-28T20:48:06.512Z,1.60
2022-09-28T20:49:08.002Z,1.63
2022-09-28T20:50:09.895Z,2.00
2022-09-28T20:51:14.130Z,1.73
2022-09-28T20:52:15.685Z,1.70
2022-09-28T20:53:17.242Z,2.05
2022-09-28T20:54:20.374Z,1.80
2022-09-28T20:55:22.380Z,1.65
2022-09-28T20:56:26.525Z,1.77
2022-09-28T20:57:28.830Z,1.90
2022-09-28T20:58:30.978Z,2.25
2022-09-28T20:59:32.756Z,1.50
2022-09-28T21:00:34.434Z,2.15
2022-09-28T21:01:36.125Z,1.75
2022-09-28T21:02:37.714Z,1.70
2022-09-28T21:03:39.435Z,1.85
2022-09-28T21:04:41.710Z,1.80
2022-09-28T21:05:43.337Z,1.77
2022-09-28T21:06:45.083Z,2.10
2022-09-28T21:07:46.614Z,1.88
2022-09-28T21:08:49.578Z,1.70
2022-09-28T21:09:51.106Z,2.00
2022-09-28T21:10:53.973Z,1.95
2022-09-28T21:11:55.989Z,2.63
2022-09-28T21:12:57.490Z,2.00
2022-09-28T21:14:01.650Z,2.08
2022-09-28T21:15:05.944Z,2.20
2022-09-28T21:16:08.107Z,2.28
2022-09-28T21:17:10.584Z,2.00
2022-09-28T21:18:12.091Z,1.80
2022-09-28T21:19:13.759Z,2.00
2022-09-28T21:20:15.374Z,1.73
2022-09-28T21:21:19.146Z,2.00
2022-09-28T21:22:20.729Z,2.10
2022-09-28T21:23:24.859Z,2.50
2022-09-28T21:24:26.725Z,1.92
2022-09-28T21:25:28.263Z,2.25
2022-09-28T21:26:31.290Z,1.83
2022-09-28T21:27:32.889Z,1.90
2022-09-28T21:28:35.309Z,2.08
2022-09-28T21:29:36.835Z,1.92
2022-09-28T21:30:39.077Z,1.83
2022-09-28T21:31:45.786Z,1.60